Time;durP1;ratioP1;P1;durP2;ratioP2;P2;SDS_P1;SDS_P2;PMS_P1;PMS_P2;Temp;Humidity;BMP_temperature;BMP_pressure;BME280_temperature;BME280_humidity;BME280_pressure;Samples;Min_cycle;Max_cycle;Signal;HPM_P1;HPM_P2
2021/09/05 00:00:17;;;;;;;4.13;2.88;;;;;;;28.10;37.89;96776.09;4976189;28;20034;-30
2021/09/05 00:02:43;;;;;;;3.63;2.92;;;;;;;28.11;37.77;96767.25;4978758;28;20113;-30
2021/09/05 00:05:09;;;;;;;4.07;2.90;;;;;;;28.10;37.63;96773.47;4976644;28;20488;-29
2021/09/05 00:07:34;;;;;;;4.22;2.85;;;;;;;28.09;37.81;96766.50;4974067;28;20034;-29
2021/09/05 00:09:59;;;;;;;7.22;2.80;;;;;;;28.11;37.84;96761.16;4978078;28;20485;-28
2021/09/05 00:12:27;;;;;;;5.35;2.42;;;;;;;28.10;37.74;96767.38;4976526;28;20022;-27
2021/09/05 00:14:52;;;;;;;4.22;2.80;;;;;;;28.10;37.80;96760.28;4981719;28;20029;-30
2021/09/05 00:17:17;;;;;;;3.53;2.45;;;;;;;28.09;37.59;96760.38;4993835;28;20026;-29
2021/09/05 00:19:43;;;;;;;2.80;2.47;;;;;;;28.09;37.52;96755.97;4979000;28;20034;-28
2021/09/05 00:22:08;;;;;;;2.63;2.25;;;;;;;28.09;37.48;96757.75;4980579;28;20038;-30
2021/09/05 00:24:34;;;;;;;3.05;2.75;;;;;;;28.09;37.54;96761.25;4980524;28;20440;-29
2021/09/05 00:26:59;;;;;;;5.70;2.50;;;;;;;28.08;37.38;96759.56;4980786;28;20045;-29
2021/09/05 00:29:25;;;;;;;2.83;2.63;;;;;;;28.08;37.35;96759.56;4979304;28;20599;-31
2021/09/05 00:31:52;;;;;;;2.88;2.38;;;;;;;28.09;37.41;96749.84;4979541;28;20030;-30
2021/09/05 00:34:18;;;;;;;2.55;2.35;;;;;;;28.07;37.57;96752.56;4982210;28;20022;-31
2021/09/05 00:36:43;;;;;;;3.65;2.80;;;;;;;28.07;37.49;96752.56;4982037;28;20121;-29
2021/09/05 00:39:09;;;;;;;3.08;2.60;;;;;;;28.07;37.26;96757.84;4977521;28;21599;-29
2021/09/05 00:41:34;;;;;;;3.25;2.40;;;;;;;28.07;37.33;96763.13;4982284;28;20030;-29
2021/09/05 00:44:04;;;;;;;2.42;2.22;;;;;;;28.07;37.27;96757.84;4982746;28;20524;-29
2021/09/05 00:46:30;;;;;;;3.30;2.30;;;;;;;28.07;37.37;96757.00;4977658;28;20027;-30
2021/09/05 00:48:56;;;;;;;2.90;2.45;;;;;;;28.07;37.39;96763.13;4976259;28;20064;-30
2021/09/05 00:51:22;;;;;;;6.50;2.70;;;;;;;28.07;37.27;96762.28;4982084;28;20484;-28
2021/09/05 00:53:48;;;;;;;3.03;2.40;;;;;;;28.06;37.14;96766.69;4950111;28;20026;-29
2021/09/05 00:56:13;;;;;;;3.85;2.40;;;;;;;28.06;37.29;96756.16;4962636;28;20246;-30
2021/09/05 00:58:41;;;;;;;3.50;2.70;;;;;;;28.06;37.24;96758.78;4961898;28;20060;-30
2021/09/05 01:01:06;;;;;;;2.45;2.25;;;;;;;28.06;37.37;96764.06;4977801;28;20022;-29
2021/09/05 01:03:34;;;;;;;2.30;2.10;;;;;;;28.06;37.26;96766.69;4979487;28;20159;-29
2021/09/05 01:06:00;;;;;;;2.35;2.15;;;;;;;28.06;37.36;96766.69;4980096;28;20045;-26
2021/09/05 01:08:25;;;;;;;2.88;2.30;;;;;;;28.06;37.21;96766.69;4983689;28;20060;-29
2021/09/05 01:10:51;;;;;;;2.67;2.30;;;;;;;28.05;37.27;96765.00;4976339;28;20033;-29
2021/09/05 01:13:16;;;;;;;2.28;2.08;;;;;;;28.04;37.17;96760.69;4987444;28;20026;-30
2021/09/05 01:15:42;;;;;;;2.50;2.17;;;;;;;28.05;37.30;96759.75;4961277;28;20045;-29
2021/09/05 01:18:07;;;;;;;3.08;2.40;;;;;;;28.06;37.28;96760.59;4977113;28;20040;-30
2021/09/05 01:20:32;;;;;;;6.15;3.38;;;;;;;28.05;37.19;96757.09;4979981;28;20472;-32
2021/09/05 01:22:58;;;;;;;2.88;2.28;;;;;;;28.05;37.24;96759.75;4977026;28;20030;-31
2021/09/05 01:25:23;;;;;;;3.63;2.50;;;;;;;28.03;37.17;96767.75;4977693;28;20578;-30
2021/09/05 01:27:49;;;;;;;3.80;2.47;;;;;;;28.04;37.07;96764.16;4982783;28;20033;-30
2021/09/05 01:30:14;;;;;;;6.00;2.60;;;;;;;28.03;37.04;96759.84;4977932;28;20027;-29
2021/09/05 01:32:39;;;;;;;9.65;2.65;;;;;;;28.04;37.23;96776.50;4981749;28;20043;-31
2021/09/05 01:35:05;;;;;;;4.35;2.33;;;;;;;28.02;37.16;96779.22;4981656;28;20061;-31
2021/09/05 01:37:31;;;;;;;2.83;2.20;;;;;;;28.03;37.17;96782.69;4981287;28;20113;-29
2021/09/05 01:39:56;;;;;;;3.40;2.30;;;;;;;28.02;37.07;96775.72;4983360;28;20041;-29
2021/09/05 01:42:22;;;;;;;2.55;2.35;;;;;;;28.02;37.15;96781.00;4978512;28;20527;-31
2021/09/05 01:44:47;;;;;;;3.15;2.40;;;;;;;28.02;37.01;96775.72;4977658;28;20040;-29
2021/09/05 01:47:13;;;;;;;4.10;2.42;;;;;;;28.02;37.01;96781.84;4980584;28;20421;-28
2021/09/05 01:49:38;;;;;;;4.95;2.33;;;;;;;28.00;36.97;96789.00;4978435;28;20053;-30
2021/09/05 01:52:04;;;;;;;4.00;2.35;;;;;;;28.02;37.09;96794.16;4977515;28;20022;-30
2021/09/05 01:54:29;;;;;;;2.70;2.15;;;;;;;28.03;37.10;96793.22;4982874;28;20026;-27
2021/09/05 01:56:55;;;;;;;2.30;2.10;;;;;;;28.02;37.04;96787.13;4976763;28;20098;-34
2021/09/05 01:59:20;;;;;;;2.55;2.22;;;;;;;28.02;37.04;96791.53;4974889;28;20480;-29
2021/09/05 02:01:46;;;;;;;4.55;1.90;;;;;;;28.02;36.96;96781.00;4980849;28;20025;-33
2021/09/05 02:04:11;;;;;;;3.42;2.20;;;;;;;28.02;37.10;96794.16;4980295;28;20033;-32
2021/09/05 02:06:36;;;;;;;2.35;2.15;;;;;;;28.01;36.92;96790.72;4980993;28;20566;-29
2021/09/05 02:09:02;;;;;;;2.33;2.03;;;;;;;28.00;37.04;96791.63;4973795;28;20030;-29
2021/09/05 02:11:27;;;;;;;3.35;2.60;;;;;;;28.01;37.01;96795.13;4985126;28;20334;-27
2021/09/05 02:13:53;;;;;;;3.20;2.40;;;;;;;28.01;36.82;96797.75;4982242;28;20088;-31
2021/09/05 02:16:18;;;;;;;2.55;2.17;;;;;;;28.01;36.40;96795.97;4980719;28;20084;-33
2021/09/05 02:18:47;;;;;;;2.40;2.20;;;;;;;28.01;36.79;96797.75;4973851;28;20038;-27
2021/09/05 02:21:12;;;;;;;3.22;2.20;;;;;;;28.01;36.82;96800.38;4974759;28;20756;-32
2021/09/05 02:23:38;;;;;;;3.25;2.00;;;;;;;28.01;36.82;96803.03;4978307;28;20117;-28
2021/09/05 02:26:03;;;;;;;2.80;2.35;;;;;;;27.99;36.87;96792.56;4979964;28;20584;-30
2021/09/05 02:28:29;;;;;;;2.10;1.90;;;;;;;28.00;36.72;96798.69;4974316;28;20070;-29
2021/09/05 02:30:54;;;;;;;3.38;1.98;;;;;;;28.00;36.90;96799.53;4979513;28;20104;-29
2021/09/05 02:33:20;;;;;;;3.95;2.20;;;;;;;28.00;36.88;96802.16;4978060;28;20054;-29
2021/09/05 02:35:45;;;;;;;2.70;2.30;;;;;;;28.01;36.87;96800.38;4978255;28;20060;-29
2021/09/05 02:38:11;;;;;;;2.10;1.92;;;;;;;28.00;36.79;96809.25;4976883;28;20034;-33
2021/09/05 02:40:36;;;;;;;2.75;1.98;;;;;;;28.00;37.01;96798.69;4978959;28;20150;-28
2021/09/05 02:43:04;;;;;;;3.33;2.00;;;;;;;27.99;36.81;96803.09;4979481;28;20034;-32
2021/09/05 02:45:30;;;;;;;2.13;1.92;;;;;;;27.99;36.94;96807.56;4977705;28;20070;-29
2021/09/05 02:47:55;;;;;;;2.90;2.25;;;;;;;28.00;36.85;96803.97;4973792;28;20043;-30
2021/09/05 02:50:21;;;;;;;3.78;2.10;;;;;;;27.99;36.70;96797.00;4974480;28;20488;-29
2021/09/05 02:52:46;;;;;;;2.03;1.83;;;;;;;28.00;36.64;96798.69;4974925;28;20443;-36
2021/09/05 02:55:11;;;;;;;3.05;2.10;;;;;;;28.00;36.80;96801.34;4979443;28;20049;-29
2021/09/05 02:57:37;;;;;;;3.10;2.15;;;;;;;27.98;36.78;96795.31;4972550;28;20053;-30
2021/09/05 03:00:04;;;;;;;2.83;2.05;;;;;;;27.99;36.70;96797.84;4975560;28;20038;-31
2021/09/05 03:02:29;;;;;;;2.22;2.03;;;;;;;28.00;36.62;96798.69;4976017;28;20863;-28
2021/09/05 03:04:54;;;;;;;2.30;2.10;;;;;;;28.00;36.75;96798.69;4977945;28;20038;-29
2021/09/05 03:07:20;;;;;;;3.20;2.20;;;;;;;28.00;36.63;96803.97;4980096;28;20033;-29
2021/09/05 03:09:45;;;;;;;2.67;2.00;;;;;;;27.99;36.74;96803.09;4976944;28;20022;-30
2021/09/05 03:12:10;;;;;;;2.67;1.98;;;;;;;27.99;36.64;96805.75;4981191;28;20030;-28
2021/09/05 03:14:36;;;;;;;2.40;1.92;;;;;;;27.98;36.82;96800.56;4974269;28;20030;-36
2021/09/05 03:17:01;;;;;;;2.45;2.00;;;;;;;27.99;36.67;96797.00;4975177;28;20483;-30
2021/09/05 03:19:27;;;;;;;2.45;2.25;;;;;;;27.99;36.73;96802.28;4977035;28;20026;-30
2021/09/05 03:21:52;;;;;;;2.55;2.10;;;;;;;27.99;36.76;96797.00;4977028;28;20045;-30
2021/09/05 03:24:17;;;;;;;2.30;2.10;;;;;;;27.99;36.68;96797.00;4975736;28;20038;-29
2021/09/05 03:26:43;;;;;;;2.75;2.08;;;;;;;27.98;36.67;96800.56;4981717;28;20033;-30
2021/09/05 03:29:08;;;;;;;2.38;1.95;;;;;;;27.97;36.51;96798.88;4978879;28;20488;-29
2021/09/05 03:31:34;;;;;;;2.45;2.03;;;;;;;27.98;36.58;96797.94;4974751;28;20424;-30
2021/09/05 03:34:00;;;;;;;2.38;2.00;;;;;;;27.99;36.67;96799.66;4979358;28;20038;-29
2021/09/05 03:36:25;;;;;;;2.00;1.70;;;;;;;27.98;36.46;96795.31;4977250;28;20026;-29
2021/09/05 03:38:50;;;;;;;2.58;2.22;;;;;;;27.97;36.47;96794.47;4972658;28;20046;-29
2021/09/05 03:41:16;;;;;;;2.60;1.80;;;;;;;27.97;36.48;96801.53;4984331;28;20508;-31
2021/09/05 03:43:41;;;;;;;2.38;1.90;;;;;;;27.98;36.65;96800.56;4974708;28;20030;-30
2021/09/05 03:46:07;;;;;;;2.00;1.75;;;;;;;27.98;36.58;96800.56;4983994;28;20168;-30
2021/09/05 03:48:32;;;;;;;2.08;1.85;;;;;;;27.96;36.54;96803.28;4968467;28;21480;-35
2021/09/05 03:50:58;;;;;;;3.63;2.20;;;;;;;27.97;36.68;96804.16;4982391;28;20035;-29
2021/09/05 03:53:24;;;;;;;3.85;2.17;;;;;;;27.97;36.57;96804.16;4977811;28;20041;-30
2021/09/05 03:55:49;;;;;;;2.40;1.92;;;;;;;27.97;36.65;96809.41;4975286;28;20037;-28
2021/09/05 03:58:15;;;;;;;2.47;1.70;;;;;;;27.96;36.67;96808.56;4978622;28;20034;-31
2021/09/05 04:00:41;;;;;;;2.05;1.80;;;;;;;27.95;36.47;96804.25;4974958;28;20034;-29
2021/09/05 04:03:06;;;;;;;3.60;1.88;;;;;;;27.96;36.66;96805.09;4975701;28;20034;-29
2021/09/05 04:05:32;;;;;;;2.90;2.10;;;;;;;27.96;36.62;96807.72;4980511;28;20041;-30
2021/09/05 04:10:28;;;;;;;1.67;1.58;;;;;;;27.97;36.42;96817.31;4974144;28;20130;-28
2021/09/05 04:12:53;;;;;;;2.75;1.98;;;;;;;27.96;36.42;96807.72;4984336;28;20038;-29
2021/09/05 04:15:19;;;;;;;2.60;1.80;;;;;;;27.95;36.39;96801.59;4960972;28;20488;-31
2021/09/05 04:17:44;;;;;;;2.55;2.30;;;;;;;27.95;36.47;96806.03;4976339;28;20038;-29
2021/09/05 04:20:10;;;;;;;3.05;2.20;;;;;;;27.95;36.36;96806.03;4981050;28;20120;-30
2021/09/05 04:22:35;;;;;;;2.33;2.10;;;;;;;27.95;36.42;96811.31;4972552;28;20034;-35
2021/09/05 04:25:02;;;;;;;2.78;2.00;;;;;;;27.95;36.47;96808.69;4979077;28;20697;-35
2021/09/05 04:27:27;;;;;;;1.90;1.80;;;;;;;27.95;36.49;96811.31;4980093;28;20547;-31
2021/09/05 04:29:52;;;;;;;2.08;1.70;;;;;;;27.95;36.38;96808.69;4982448;28;20042;-29
2021/09/05 04:32:20;;;;;;;2.40;2.00;;;;;;;27.94;36.34;96807.81;4977697;28;20157;-29
2021/09/05 04:34:45;;;;;;;2.40;2.00;;;;;;;27.93;36.47;96808.78;4975426;28;20026;-30
2021/09/05 04:37:11;;;;;;;2.00;1.80;;;;;;;27.91;36.37;96811.50;4970038;28;20034;-29
2021/09/05 04:39:36;;;;;;;1.88;1.48;;;;;;;27.93;36.38;96808.78;4976499;28;20041;-31
2021/09/05 04:42:02;;;;;;;2.60;1.67;;;;;;;27.95;36.46;96821.84;4976660;28;20615;-29
2021/09/05 04:44:27;;;;;;;2.55;1.80;;;;;;;27.95;36.37;96819.22;4982378;28;20144;-30
2021/09/05 04:46:52;;;;;;;2.05;1.85;;;;;;;27.94;36.34;96825.41;4978177;28;20547;-29
2021/09/05 04:49:18;;;;;;;2.10;1.90;;;;;;;27.90;36.32;96815.06;4977080;28;20031;-30
2021/09/05 04:51:43;;;;;;;2.25;1.88;;;;;;;27.92;36.37;96822.88;4977077;28;20029;-31
2021/09/05 04:54:09;;;;;;;1.95;1.73;;;;;;;27.94;36.67;96826.25;4979521;28;20038;-31
2021/09/05 04:56:34;;;;;;;1.83;1.60;;;;;;;27.92;36.36;96828.16;4972580;28;20052;-30
2021/09/05 04:58:59;;;;;;;2.40;1.85;;;;;;;27.92;36.41;96831.63;4975526;28;20038;-33
2021/09/05 05:01:25;;;;;;;2.10;1.90;;;;;;;27.93;36.33;96840.38;4978337;28;20022;-29
2021/09/05 05:03:50;;;;;;;2.00;1.80;;;;;;;27.92;36.46;96850.06;4985961;28;20030;-30
2021/09/05 05:06:16;;;;;;;2.47;1.80;;;;;;;27.91;36.32;96848.38;4982634;28;20746;-36
2021/09/05 05:08:41;;;;;;;3.85;1.65;;;;;;;27.91;36.35;96848.38;4979751;28;20089;-29
2021/09/05 05:11:10;;;;;;;2.20;2.00;;;;;;;27.92;36.36;96855.31;4978467;28;20506;-29
2021/09/05 05:13:35;;;;;;;3.03;1.75;;;;;;;27.92;36.39;96860.59;4959709;28;20088;-28
2021/09/05 05:16:00;;;;;;;2.25;1.65;;;;;;;27.92;36.24;96871.13;4982005;28;20042;-29
2021/09/05 05:18:26;;;;;;;2.67;1.75;;;;;;;27.91;36.36;96868.56;4976660;28;20648;-31
2021/09/05 05:20:51;;;;;;;2.85;2.13;;;;;;;27.92;36.36;96865.84;4974915;28;20023;-33
2021/09/05 05:23:17;;;;;;;2.78;1.77;;;;;;;27.91;36.54;96874.69;4977072;28;20035;-30
2021/09/05 05:25:43;;;;;;;1.95;1.70;;;;;;;27.91;36.62;96874.69;4985402;28;20041;-33
2021/09/05 05:28:08;;;;;;;2.33;2.05;;;;;;;27.89;36.43;96876.56;4982279;28;20109;-31
2021/09/05 05:30:33;;;;;;;2.42;2.10;;;;;;;27.91;36.51;96879.97;4981093;28;20060;-30
2021/09/05 05:32:59;;;;;;;4.85;2.00;;;;;;;27.90;36.51;96875.66;4985571;28;20034;-28
2021/09/05 05:35:25;;;;;;;3.67;1.92;;;;;;;27.88;36.52;96874.88;4981907;28;20029;-29
2021/09/05 05:37:50;;;;;;;1.60;1.50;;;;;;;27.91;36.62;96881.75;4973484;28;20041;-29
2021/09/05 05:40:16;;;;;;;2.15;1.50;;;;;;;27.90;36.59;96880.91;4975527;28;20534;-30
2021/09/05 05:42:41;;;;;;;2.53;1.75;;;;;;;27.91;36.59;96884.38;4977319;28;20041;-30
2021/09/05 05:45:07;;;;;;;2.17;1.80;;;;;;;27.91;36.53;96879.97;4979378;28;20440;-30
2021/09/05 05:47:33;;;;;;;1.83;1.67;;;;;;;27.91;36.50;96890.50;4976919;28;20030;-30
2021/09/05 05:49:58;;;;;;;2.00;1.73;;;;;;;27.90;36.48;96890.59;4982032;28;20977;-31
2021/09/05 05:52:23;;;;;;;2.00;1.85;;;;;;;27.90;36.55;96888.81;4975968;28;20077;-29
2021/09/05 05:54:49;;;;;;;2.53;1.98;;;;;;;27.90;36.47;96894.09;4974483;28;20157;-31
2021/09/05 05:57:14;;;;;;;2.42;1.80;;;;;;;27.90;36.49;96888.81;4978254;28;20030;-29
2021/09/05 05:59:40;;;;;;;4.65;1.95;;;;;;;27.91;36.58;96890.50;4983334;28;20030;-34
2021/09/05 06:02:05;;;;;;;2.03;1.70;;;;;;;27.90;36.41;96894.09;4981663;28;20604;-29
2021/09/05 06:04:30;;;;;;;2.13;1.67;;;;;;;27.91;36.45;96895.78;4982659;28;20496;-30
2021/09/05 06:06:56;;;;;;;2.45;1.98;;;;;;;27.90;36.27;96883.56;4977942;28;20484;-30
2021/09/05 06:09:22;;;;;;;2.00;1.60;;;;;;;27.89;36.45;96887.09;4977684;28;20034;-32
2021/09/05 06:11:47;;;;;;;2.03;1.60;;;;;;;27.90;36.39;96894.09;4979618;28;20030;-28
2021/09/05 06:14:13;;;;;;;1.60;1.50;;;;;;;27.90;36.41;96886.19;4976739;28;20436;-31
2021/09/05 06:16:38;;;;;;;2.10;1.80;;;;;;;27.91;36.41;96892.28;4967592;28;20042;-33
2021/09/05 06:19:04;;;;;;;1.98;1.58;;;;;;;27.90;36.37;96888.81;4963926;28;20035;-28
2021/09/05 06:21:29;;;;;;;1.95;1.80;;;;;;;27.91;36.49;96889.66;4976093;28;20027;-30
2021/09/05 06:23:55;;;;;;;2.42;1.67;;;;;;;27.89;36.34;96881.84;4975001;28;20567;-31
2021/09/05 06:26:20;;;;;;;1.70;1.60;;;;;;;27.91;36.46;96885.25;4981682;28;20037;-28
2021/09/05 06:28:45;;;;;;;2.10;1.67;;;;;;;27.90;36.42;96886.19;4972362;28;20042;-32
2021/09/05 06:31:11;;;;;;;3.15;1.90;;;;;;;27.91;36.49;96890.50;4974323;28;20125;-29
2021/09/05 06:33:36;;;;;;;3.75;2.22;;;;;;;27.92;36.37;96896.63;4979298;28;20105;-30
2021/09/05 06:36:02;;;;;;;4.22;2.13;;;;;;;27.91;36.43;96900.19;4977651;28;20034;-29
2021/09/05 06:38:27;;;;;;;3.22;2.08;;;;;;;27.91;36.49;96895.78;4978210;28;20068;-30
2021/09/05 06:40:53;;;;;;;2.70;1.95;;;;;;;27.92;36.51;96897.47;4974955;28;20026;-30
2021/09/05 06:43:18;;;;;;;7.85;3.55;;;;;;;27.91;36.24;96903.66;4969744;28;20041;-29
2021/09/05 06:45:44;;;;;;;11.55;4.70;;;;;;;27.88;35.98;96903.84;4984178;28;20026;-28
2021/09/05 06:48:09;;;;;;;7.35;4.45;;;;;;;27.88;35.83;96903.03;4980848;28;20037;-30
2021/09/05 06:50:34;;;;;;;9.35;4.90;;;;;;;27.86;35.48;96907.50;4978465;28;20030;-36
2021/09/05 06:53:00;;;;;;;7.78;5.03;;;;;;;27.85;35.20;96905.81;4976596;28;20125;-29
2021/09/05 06:55:26;;;;;;;6.78;4.50;;;;;;;27.84;35.22;96914.69;4975488;28;20500;-29
2021/09/05 06:57:52;;;;;;;10.65;4.75;;;;;;;27.82;35.06;96917.41;4973864;28;20022;-30
2021/09/05 07:00:17;;;;;;;9.93;4.97;;;;;;;27.79;34.84;96912.31;4966894;28;20920;-32
2021/09/05 07:02:43;;;;;;;6.30;4.93;;;;;;;27.78;34.93;96913.25;4953952;28;20497;-29
2021/09/05 07:05:09;;;;;;;8.65;4.80;;;;;;;27.77;35.12;96911.56;4970728;28;20504;-30
2021/09/05 07:07:34;;;;;;;7.13;4.78;;;;;;;27.76;34.84;96917.75;4972536;28;20030;-29
2021/09/05 07:10:00;;;;;;;7.72;4.70;;;;;;;27.76;34.97;96912.47;4975077;28;20409;-30
2021/09/05 07:12:25;;;;;;;6.97;4.45;;;;;;;27.74;35.02;96904.69;4972926;28;20644;-29
2021/09/05 07:14:51;;;;;;;10.00;5.00;;;;;;;27.74;34.88;96909.09;4973315;28;20408;-30
2021/09/05 07:17:16;;;;;;;9.00;4.57;;;;;;;27.74;35.00;96915.22;4973863;28;20030;-30
2021/09/05 07:19:42;;;;;;;8.57;4.68;;;;;;;27.73;34.92;96913.50;4973668;28;20034;-27
2021/09/05 07:22:07;;;;;;;7.32;4.82;;;;;;;27.74;34.82;96924.91;4979602;28;20031;-30
2021/09/05 07:24:32;;;;;;;6.88;4.80;;;;;;;27.74;34.90;96922.25;4978957;28;20038;-28
2021/09/05 07:26:58;;;;;;;8.82;4.85;;;;;;;27.74;34.99;96925.75;4975340;28;20045;-29
2021/09/05 07:29:23;;;;;;;7.93;5.28;;;;;;;27.74;34.92;96930.16;4974549;28;21597;-31
2021/09/05 07:31:48;;;;;;;10.20;5.70;;;;;;;27.74;34.87;96925.75;4972321;28;20037;-29
2021/09/05 07:34:14;;;;;;;11.98;7.97;;;;;;;27.74;34.86;96932.78;4972807;28;20237;-28
2021/09/05 07:36:41;;;;;;;11.25;6.20;;;;;;;27.73;34.66;96928.47;4973244;28;20033;-31
2021/09/05 07:39:07;;;;;;;7.63;5.97;;;;;;;27.71;34.36;96927.69;4971596;28;20281;-29
2021/09/05 07:41:32;;;;;;;11.73;6.30;;;;;;;27.69;33.85;96926.97;4972008;28;20057;-27
2021/09/05 07:43:58;;;;;;;9.80;6.20;;;;;;;27.65;33.87;96926.31;4975021;28;20746;-32
2021/09/05 07:46:23;;;;;;;8.68;6.15;;;;;;;27.57;33.75;96924.06;4974756;28;20037;-29
2021/09/05 07:48:48;;;;;;;8.43;5.55;;;;;;;27.61;33.69;96930.88;4973302;28;20026;-30
2021/09/05 07:51:14;;;;;;;9.82;5.75;;;;;;;27.59;33.73;96930.09;4973682;28;20030;-27
2021/09/05 07:53:39;;;;;;;5.93;5.10;;;;;;;27.58;33.91;96936.28;4974553;28;20029;-29
2021/09/05 07:56:05;;;;;;;8.02;5.68;;;;;;;27.59;34.13;96938.00;4972784;28;20551;-29
2021/09/05 07:58:30;;;;;;;6.85;5.32;;;;;;;27.57;34.08;96942.50;4972936;28;20034;-28
2021/09/05 08:00:55;;;;;;;7.70;5.40;;;;;;;27.54;34.15;96940.06;4972448;28;20045;-29
2021/09/05 08:03:21;;;;;;;11.40;5.60;;;;;;;27.55;34.01;96941.75;4955969;28;20544;-28
2021/09/05 08:05:46;;;;;;;8.95;5.72;;;;;;;27.54;34.15;96942.69;4972837;28;20612;-31
2021/09/05 08:08:12;;;;;;;14.68;5.70;;;;;;;27.53;34.12;96936.56;4972700;28;21817;-28
2021/09/05 08:10:38;;;;;;;11.50;5.07;;;;;;;27.52;34.11;96931.38;4973094;28;20120;-28
2021/09/05 08:13:04;;;;;;;8.60;5.43;;;;;;;27.54;33.92;96937.44;4974009;28;20498;-29
2021/09/05 08:15:29;;;;;;;5.50;4.80;;;;;;;27.53;34.20;96948.88;4970981;28;20030;-31
2021/09/05 08:17:55;;;;;;;7.82;4.80;;;;;;;27.55;34.29;96939.13;4968701;28;20113;-29
2021/09/05 08:20:20;;;;;;;6.05;4.97;;;;;;;27.56;34.50;96940.81;4971322;28;20022;-29
2021/09/05 08:22:47;;;;;;;5.78;4.90;;;;;;;27.58;34.55;96943.34;4972439;28;20045;-27
2021/09/05 08:25:13;;;;;;;9.65;5.15;;;;;;;27.59;34.64;96947.66;4971122;28;20026;-31
2021/09/05 08:27:38;;;;;;;15.15;5.85;;;;;;;27.58;34.71;96941.56;4953856;28;20918;-30
2021/09/05 08:30:04;;;;;;;17.38;5.40;;;;;;;27.58;34.83;96949.44;4973371;28;20042;-29
2021/09/05 08:32:29;;;;;;;9.45;5.28;;;;;;;27.57;34.96;96950.38;4975122;28;20132;-33
2021/09/05 08:34:55;;;;;;;7.85;5.38;;;;;;;27.55;34.90;96948.78;4973227;28;20030;-30
2021/09/05 08:37:20;;;;;;;7.65;5.25;;;;;;;27.58;35.08;96959.16;4977495;28;20124;-28
2021/09/05 08:39:46;;;;;;;9.20;4.85;;;;;;;27.56;35.05;96953.09;4974902;28;20057;-29
2021/09/05 08:42:12;;;;;;;7.00;5.43;;;;;;;27.55;35.07;96957.53;4976087;28;20077;-32
2021/09/05 08:44:37;;;;;;;13.45;5.50;;;;;;;27.54;35.22;96955.84;4977848;28;21010;-30
2021/09/05 08:47:03;;;;;;;11.35;5.85;;;;;;;27.54;35.25;96958.50;4974271;28;20030;-33
2021/09/05 08:49:32;;;;;;;7.90;5.72;;;;;;;27.55;35.32;96956.69;4977589;28;20026;-31
2021/09/05 08:51:57;;;;;;;9.82;5.80;;;;;;;27.53;35.36;96960.25;4975790;28;20041;-33
2021/09/05 08:54:23;;;;;;;8.85;5.47;;;;;;;27.53;35.43;96959.41;4973245;28;20030;-28
2021/09/05 08:56:49;;;;;;;7.70;5.60;;;;;;;27.52;35.45;96965.59;4978416;28;20033;-29
2021/09/05 08:59:14;;;;;;;8.20;5.20;;;;;;;27.50;35.48;96960.44;4978869;28;20030;-28
2021/09/05 09:01:40;;;;;;;7.68;5.28;;;;;;;27.51;35.46;96966.56;4978775;28;20122;-28
2021/09/05 09:04:06;;;;;;;10.93;5.30;;;;;;;27.50;35.42;96970.94;4973807;28;20464;-32
2021/09/05 09:06:38;;;;;;;9.50;5.15;;;;;;;27.51;35.42;96971.81;4977690;28;20037;-31
2021/09/05 09:09:04;;;;;;;6.80;5.13;;;;;;;27.51;35.55;96969.19;4976804;28;20050;-29
2021/09/05 09:11:50;;;;;;;9.25;4.80;;;;;;;27.50;35.70;96970.94;4980800;28;20685;-28
2021/09/05 09:14:15;;;;;;;11.73;5.20;;;;;;;27.53;35.54;96969.94;4979112;28;20034;-28
2021/09/05 09:16:41;;;;;;;8.80;5.15;;;;;;;27.54;35.49;96971.66;4974529;28;20034;-33
2021/09/05 09:19:07;;;;;;;11.57;5.20;;;;;;;27.55;35.66;96970.69;4974493;28;20034;-31
2021/09/05 09:21:39;;;;;;;14.02;5.50;;;;;;;27.57;35.75;96976.72;4986459;28;20027;-30
2021/09/05 09:24:12;;;;;;;11.77;5.57;;;;;;;27.60;35.83;96973.06;4987654;28;20144;-29
2021/09/05 09:26:38;;;;;;;14.68;5.55;;;;;;;27.61;35.83;96973.00;4985079;28;20776;-28
2021/09/05 09:29:03;;;;;;;16.42;6.93;;;;;;;27.63;35.73;96972.91;4985118;28;20073;-31
2021/09/05 09:31:28;;;;;;;16.25;7.13;;;;;;;27.65;35.86;96973.69;4964138;28;20356;-28
2021/09/05 09:33:58;;;;;;;16.42;6.47;;;;;;;27.69;35.92;96969.09;4982961;28;20088;-29
2021/09/05 09:36:28;;;;;;;13.38;6.70;;;;;;;27.70;36.00;96976.03;4984890;28;20773;-29
2021/09/05 09:38:55;;;;;;;15.80;6.72;;;;;;;27.72;35.92;96974.19;4987159;28;20030;-28
2021/09/05 09:41:20;;;;;;;15.15;6.95;;;;;;;27.74;35.86;96974.94;4982713;28;21550;-29
2021/09/05 09:43:52;;;;;;;16.02;7.20;;;;;;;27.76;36.20;96975.66;5000977;28;20025;-29
2021/09/05 09:46:19;;;;;;;16.95;6.50;;;;;;;27.78;36.00;96979.09;4982514;28;20033;-30
2021/09/05 09:48:47;;;;;;;16.10;6.32;;;;;;;27.80;35.90;96976.34;4983900;28;20109;-32
2021/09/05 09:51:13;;;;;;;14.38;6.55;;;;;;;27.81;36.08;96968.38;4999483;28;20034;-28
2021/09/05 09:53:40;;;;;;;14.15;6.38;;;;;;;27.82;35.93;96975.34;4986579;28;20030;-30
2021/09/05 09:56:06;;;;;;;11.80;6.47;;;;;;;27.84;36.07;96968.16;4993958;28;20427;-30
2021/09/05 09:58:31;;;;;;;12.82;6.22;;;;;;;27.85;35.94;96964.63;4968083;28;20030;-29
2021/09/05 10:00:56;;;;;;;11.23;5.50;;;;;;;27.86;36.07;96961.03;4982728;28;20034;-30
2021/09/05 10:03:23;;;;;;;14.20;6.40;;;;;;;27.88;36.11;96958.31;4965906;28;20037;-29
2021/09/05 10:05:48;;;;;;;11.23;5.82;;;;;;;27.88;36.12;96953.88;4985587;28;20040;-29
2021/09/05 10:08:14;;;;;;;10.30;5.65;;;;;;;27.90;36.06;96952.03;4963820;28;20030;-30
2021/09/05 10:10:42;;;;;;;11.23;5.93;;;;;;;27.92;35.89;96954.56;4984159;28;20033;-31
2021/09/05 10:13:07;;;;;;;11.48;5.07;;;;;;;27.92;36.13;96950.13;4985264;28;20034;-30
2021/09/05 10:15:33;;;;;;;11.52;5.85;;;;;;;27.92;36.04;96952.78;4965528;28;20026;-30
2021/09/05 10:17:58;;;;;;;10.82;5.20;;;;;;;27.95;36.11;96950.91;4985494;28;20037;-31
2021/09/05 10:20:24;;;;;;;10.45;5.85;;;;;;;27.95;35.99;96948.28;4985180;28;20057;-30
2021/09/05 10:22:49;;;;;;;11.57;5.63;;;;;;;27.94;36.23;96947.41;4982632;28;20030;-28
2021/09/05 10:25:16;;;;;;;8.90;5.30;;;;;;;27.97;36.14;96941.13;4981449;28;20065;-29
2021/09/05 10:27:46;;;;;;;9.90;5.20;;;;;;;27.98;36.10;96942.81;4984782;28;20495;-28
2021/09/05 10:30:13;;;;;;;8.50;5.15;;;;;;;27.99;36.13;96949.78;4980490;28;20046;-31
2021/09/05 10:32:45;;;;;;;12.15;5.47;;;;;;;28.00;36.13;96947.03;4983333;28;20022;-29
2021/09/05 10:35:25;;;;;;;10.90;4.97;;;;;;;27.99;36.19;96939.25;4983469;28;20034;-30
2021/09/05 10:38:09;;;;;;;9.35;4.95;;;;;;;28.02;36.22;96939.03;4982180;28;20034;-29
2021/09/05 10:40:39;;;;;;;9.27;4.93;;;;;;;28.02;36.24;96944.31;4986334;28;20061;-30
2021/09/05 10:43:04;;;;;;;7.97;4.63;;;;;;;28.03;36.08;96948.63;4979491;28;20145;-29
2021/09/05 10:45:29;;;;;;;8.95;4.80;;;;;;;28.04;36.46;96950.34;4984881;28;20413;-29
2021/09/05 10:47:55;;;;;;;9.05;4.50;;;;;;;28.03;36.21;96938.97;4964473;28;20034;-29
2021/09/05 10:50:36;;;;;;;10.55;5.15;;;;;;;28.06;36.31;96947.63;4984819;28;20026;-29
2021/09/05 10:53:15;;;;;;;10.30;4.90;;;;;;;28.05;36.24;96946.78;4975281;28;20030;-29
2021/09/05 10:56:09;;;;;;;8.13;4.63;;;;;;;28.06;36.32;96945.81;4983009;28;20073;-29
2021/09/05 10:58:38;;;;;;;8.38;4.60;;;;;;;28.07;36.15;96954.59;4984820;28;20014;-29
2021/09/05 11:01:17;;;;;;;8.32;4.78;;;;;;;28.08;36.17;96951.88;4982632;28;20084;-29
2021/09/05 11:04:12;;;;;;;7.05;4.50;;;;;;;28.08;36.36;96953.63;4975825;28;20058;-29
2021/09/05 11:06:43;;;;;;;6.13;4.53;;;;;;;28.08;36.23;96959.78;4964255;28;20038;-30
2021/09/05 11:09:18;;;;;;;7.57;4.40;;;;;;;28.08;36.32;96957.13;4973850;28;20763;-29
2021/09/05 11:11:53;;;;;;;7.90;4.57;;;;;;;28.09;36.34;96950.91;4971617;28;20611;-30
2021/09/05 11:14:19;;;;;;;9.30;4.50;;;;;;;28.11;36.44;96959.56;4974329;28;20088;-29
2021/09/05 11:16:44;;;;;;;6.82;4.38;;;;;;;28.09;36.37;96950.91;4975820;28;20030;-28
2021/09/05 11:19:10;;;;;;;8.65;4.57;;;;;;;28.11;36.36;96956.94;4958390;28;20165;-29
2021/09/05 11:21:35;;;;;;;6.55;4.28;;;;;;;28.12;36.77;96956.00;4953726;28;22769;-29
2021/09/05 11:24:00;;;;;;;6.18;3.85;;;;;;;28.13;36.55;96956.84;4960017;28;20038;-29
2021/09/05 11:26:26;;;;;;;5.82;3.92;;;;;;;28.13;36.65;96962.97;4980057;28;20026;-30
2021/09/05 11:28:52;;;;;;;6.25;4.00;;;;;;;28.14;36.47;96956.75;4967050;28;20184;-29